^^
Station Historical Data
Daily Summary for March 8, 2018 Units:  Metric    English   Both
« Previous Day
Next Day »
Daily Weekly Monthly Yearly Custom
  High: Low: Average:
Temperature: -17.8 °C 14.3 °C 20.3 °C
Dew Point: -17.8 °C 12.8 °C 14.3 °C
Humidity: Humidity% 53% 69%
Wind Speed: 0km/h -1609.1km/h -21.6km/h
Wind Gust: 0km/h - -
Wind- -
Pressure: 0 hPa 1004.6 hPa -
Precipitation: 0 mm    
Historical Graphs
 
 
Tabular Data for March 8, 2018
Time Temperature Dew Point Pressure Wind Wind Speed Wind Gust Humidity Rainfall Rate (Hourly) solar Conditions
-17.8 °C -17.8 °C 0 hPa Calm     Humidity% 0 mm SoftwareType W/m2 Conditions
07:44 14.3 °C 13.2 °C 1008.7 hPa North -1609.1 km/h -1607.7 km/h 93% 0 mm meteobridge W/m2
07:50 14.4 °C 13.3 °C 1008.7 hPa Calm     93% 0 mm meteobridge W/m2
07:56 14.4 °C 13.3 °C 1008.7 hPa Calm     93% 0 mm meteobridge W/m2
08:02 14.4 °C 13.3 °C 1008.7 hPa South 4.7 km/h 8 km/h 93% 0 mm meteobridge W/m2
08:09 14.7 °C 13.6 °C 1008.7 hPa Calm   6.4 km/h 93% 0 mm meteobridge W/m2
08:15 14.9 °C 13.8 °C 1008.7 hPa South 3.2 km/h 4.8 km/h 93% 0 mm meteobridge W/m2
08:21 15.2 °C 13.9 °C 1008.7 hPa South 6.4 km/h 6.4 km/h 92% 0 mm meteobridge W/m2
08:27 15.5 °C 14.2 °C 1009 hPa South 4.7 km/h 9.7 km/h 92% 0 mm meteobridge W/m2
08:33 15.8 °C 14.3 °C 1009 hPa SSE 1.4 km/h 11.3 km/h 91% 0 mm meteobridge W/m2
08:39 16.1 °C 14.5 °C 1009 hPa SSE 6.4 km/h 14.5 km/h 90% 0 mm meteobridge W/m2
08:45 16 °C 14.2 °C 1009 hPa SSE 4.7 km/h 11.3 km/h 89% 0 mm meteobridge W/m2
08:51 16.1 °C 14.3 °C 1009 hPa South 4.7 km/h 9.7 km/h 89% 0 mm meteobridge W/m2
08:57 16.3 °C 14.3 °C 1009 hPa SSW 6.4 km/h 9.7 km/h 88% 0 mm meteobridge W/m2
09:03 16.3 °C 14.3 °C 1009 hPa South 3.2 km/h 9.7 km/h 88% 0 mm meteobridge W/m2
09:09 16.6 °C 14.6 °C 1009 hPa SSE 6.4 km/h 12.9 km/h 88% 0 mm meteobridge W/m2
09:15 16.8 °C 14.6 °C 1009 hPa South 6.4 km/h 11.3 km/h 87% 0 mm meteobridge W/m2
09:22 16.8 °C 14.6 °C 1009.4 hPa SSE 1.4 km/h 8 km/h 87% 0 mm meteobridge W/m2
09:28 16.8 °C 14.4 °C 1009.4 hPa South 4.7 km/h 6.4 km/h 86% 0 mm meteobridge W/m2
09:34 16.8 °C 14.3 °C 1009.4 hPa South 1.4 km/h 4.8 km/h 85% 0 mm meteobridge W/m2
09:40 17.1 °C 14.6 °C 1009.4 hPa Calm     85% 0 mm meteobridge W/m2
09:46 17.1 °C 14.6 °C 1009.4 hPa WSW 6.4 km/h 9.7 km/h 85% 0 mm meteobridge W/m2
09:52 17.2 °C 14.7 °C 1009.4 hPa Calm   3.2 km/h 85% 0 mm meteobridge W/m2
09:58 17.5 °C 14.8 °C 1009.4 hPa SW 1.4 km/h 4.8 km/h 84% 0 mm meteobridge W/m2
10:05 18.3 °C 15.2 °C 1009.4 hPa SW 4.7 km/h 8 km/h 82% 0 mm meteobridge W/m2
10:11 19.1 °C 15.6 °C 1009.7 hPa Calm   6.4 km/h 80% 0 mm meteobridge W/m2
10:17 20.1 °C 15.7 °C 1009.7 hPa NW 1.4 km/h 4.8 km/h 76% 0 mm meteobridge W/m2
10:23 20.5 °C 15.5 °C 1009.7 hPa NNW 3.2 km/h 6.4 km/h 73% 0 mm meteobridge W/m2
10:29 20 °C 14.8 °C 1009.7 hPa Calm   3.2 km/h 72% 0 mm meteobridge W/m2
10:35 19.9 °C 15.1 °C 1009.7 hPa NNE 1.4 km/h 6.4 km/h 74% 0 mm meteobridge W/m2
10:42 19.7 °C 14.9 °C 1009.4 hPa NNE 7.9 km/h 8 km/h 74% 0 mm meteobridge W/m2
10:48 19.4 °C 14.9 °C 1009.4 hPa NNE 4.7 km/h 9.7 km/h 75% 0 mm meteobridge W/m2
10:54 19.5 °C 14.9 °C 1009.7 hPa SE 6.4 km/h 9.7 km/h 75% 0 mm meteobridge W/m2
11:00 19.3 °C 14.5 °C 1009.4 hPa SE 3.2 km/h 3.2 km/h 74% 0 mm meteobridge W/m2
11:06 18.8 °C 14.3 °C 1009.4 hPa SSW 4.7 km/h 8 km/h 75% 0 mm meteobridge W/m2
11:12 18.8 °C 14.7 °C 1009.4 hPa Calm   8 km/h 77% 0 mm meteobridge W/m2
11:18 19 °C 14.7 °C 1009.7 hPa Calm   4.8 km/h 76% 0 mm meteobridge W/m2
11:24 19.2 °C 14.9 °C 1009.4 hPa South 4.7 km/h 8 km/h 76% 0 mm meteobridge W/m2
11:30 19.3 °C 14.8 °C 1009.4 hPa SSE 6.4 km/h 6.4 km/h 75% 0 mm meteobridge W/m2
11:37 19.6 °C 15 °C 1009.4 hPa SSE 1.4 km/h 4.8 km/h 75% 0 mm meteobridge W/m2
11:43 19.5 °C 14.7 °C 1009 hPa Calm   3.2 km/h 74% 0 mm meteobridge W/m2
11:49 20.1 °C 14.9 °C 1009 hPa SSE 3.2 km/h 3.2 km/h 72% 0 mm meteobridge W/m2
11:55 20.1 °C 14.5 °C 1009.4 hPa SSE 1.4 km/h 4.8 km/h 70% 0 mm meteobridge W/m2
12:02 20.2 °C 14.6 °C 1009 hPa Calm     70% 0 mm meteobridge W/m2
12:08 20.7 °C 15.3 °C 1009 hPa South 7.9 km/h 9.7 km/h 71% 0 mm meteobridge W/m2
12:14 20.2 °C 14.8 °C 1009 hPa Calm   8 km/h 71% 0 mm meteobridge W/m2
12:20 20.8 °C 15.1 °C 1009 hPa South 1.4 km/h 4.8 km/h 70% 0 mm meteobridge W/m2
12:26 21.3 °C 15.2 °C 1009 hPa South 1.4 km/h 1.6 km/h 68% 0 mm meteobridge W/m2
12:33 21.1 °C 15 °C 1008.7 hPa Calm   3.2 km/h 68% 0 mm meteobridge W/m2
12:39 20.8 °C 15.1 °C 1008.7 hPa SSE 6.4 km/h 11.3 km/h 70% 0 mm meteobridge W/m2
12:45 20.4 °C 15 °C 1008.7 hPa SSE 3.2 km/h 3.2 km/h 71% 0 mm meteobridge W/m2
12:51 20.1 °C 14.9 °C 1008.7 hPa SE 3.2 km/h 3.2 km/h 72% 0 mm meteobridge W/m2
12:57 20 °C 15 °C 1008.4 hPa SE 3.2 km/h 6.4 km/h 73% 0 mm meteobridge W/m2
13:03 20.1 °C 15.1 °C 1008.4 hPa Calm   4.8 km/h 73% 0 mm meteobridge W/m2
13:10 20.7 °C 15.5 °C 1008.4 hPa Calm   1.6 km/h 72% 0 mm meteobridge W/m2
13:16 21.3 °C 15.6 °C 1008 hPa Calm   3.2 km/h 70% 0 mm meteobridge W/m2
13:22 21.2 °C 15.3 °C 1008 hPa Calm     69% 0 mm meteobridge W/m2
13:28 21.3 °C 15.4 °C 1008 hPa North 6.4 km/h 6.4 km/h 69% 0 mm meteobridge W/m2
13:34 21.2 °C 15.1 °C 1007.7 hPa NNW 3.2 km/h 11.3 km/h 68% 0 mm meteobridge W/m2
13:40 21.1 °C 15.2 °C 1007.7 hPa NNW 4.7 km/h 6.4 km/h 69% 0 mm meteobridge W/m2
13:47 22 °C 15.8 °C 1007.7 hPa NNE 3.2 km/h 6.4 km/h 68% 0 mm meteobridge W/m2
13:53 22.4 °C 15.5 °C 1007.7 hPa ESE 1.4 km/h 4.8 km/h 65% 0 mm meteobridge W/m2
13:59 23.1 °C 15.9 °C 1007.3 hPa Calm   1.6 km/h 64% 0 mm meteobridge W/m2
14:05 23.8 °C 16.1 °C 1007.3 hPa ESE 1.4 km/h 6.4 km/h 62% 0 mm meteobridge W/m2
14:11 23.3 °C 15.6 °C 1007 hPa ESE 1.4 km/h 4.8 km/h 62% 0 mm meteobridge W/m2
14:17 22.9 °C 15.7 °C 1007 hPa ESE 4.7 km/h 6.4 km/h 64% 0 mm meteobridge W/m2
14:23 23 °C 15.6 °C 1007 hPa South 3.2 km/h 9.7 km/h 63% 0 mm meteobridge W/m2
14:29 22.9 °C 15.2 °C 1007 hPa South 9.7 km/h 16.1 km/h 62% 0 mm meteobridge W/m2
14:35 22.9 °C 15.2 °C 1006.7 hPa South 14.3 km/h 17.7 km/h 62% 0 mm meteobridge W/m2
14:42 23.1 °C 15.2 °C 1006.7 hPa SSE 11.1 km/h 16.1 km/h 61% 0 mm meteobridge W/m2
14:48 22.8 °C 14.9 °C 1006.3 hPa SSE 6.4 km/h 9.7 km/h 61% 0 mm meteobridge W/m2
14:54 23.1 °C 16.2 °C 1006.3 hPa SSE 7.9 km/h 11.3 km/h 65% 0 mm meteobridge W/m2
15:00 23.9 °C 15.1 °C 1006.3 hPa South 17.7 km/h 22.5 km/h 58% 0 mm meteobridge W/m2
15:06 23.9 °C 14.6 °C 1006.3 hPa SSW 11.1 km/h 17.7 km/h 56% 0 mm meteobridge W/m2
15:12 23.9 °C 15.4 °C 1006 hPa SE 17.7 km/h 17.7 km/h 59% 0 mm meteobridge W/m2
15:18 24.3 °C 15.8 °C 1006 hPa SSE 9.7 km/h 20.9 km/h 59% 0 mm meteobridge W/m2
15:24 23.4 °C 14.9 °C 1005.6 hPa SSE 3.2 km/h 4.8 km/h 59% 0 mm meteobridge W/m2
15:31 23.4 °C 14.7 °C 1005.6 hPa SSW 9.7 km/h 19.3 km/h 58% 0 mm meteobridge W/m2
15:37 24.2 °C 14.6 °C 1005.6 hPa SSE 19.5 km/h 19.5 km/h 55% 0 mm meteobridge W/m2
15:43 24.5 °C 15.4 °C 1005.6 hPa SSW 16.3 km/h 22.5 km/h 57% 0 mm meteobridge W/m2
15:49 24.2 °C 14.9 °C 1005.6 hPa South 7.9 km/h 16.1 km/h 56% 0 mm meteobridge W/m2
15:55 24.2 °C 15.4 °C 1005.6 hPa SSE 6.4 km/h 16.1 km/h 58% 0 mm meteobridge W/m2
16:01 23.8 °C 15 °C 1005.6 hPa SE 14.3 km/h 20.9 km/h 58% 0 mm meteobridge W/m2
16:07 23.4 °C 14.7 °C 1005.3 hPa South 16.3 km/h 25.7 km/h 58% 0 mm meteobridge W/m2
16:13 23.4 °C 14.4 °C 1005.3 hPa South 13 km/h 20.9 km/h 57% 0 mm meteobridge W/m2
16:20 23.4 °C 14.1 °C 1005.3 hPa South 20.9 km/h 20.9 km/h 56% 0 mm meteobridge W/m2
16:26 22.8 °C 14.1 °C 1005.3 hPa SSE 9.7 km/h 19.3 km/h 58% 0 mm meteobridge W/m2
16:32 23.5 °C 14.5 °C 1005.3 hPa South 7.9 km/h 19.3 km/h 57% 0 mm meteobridge W/m2
16:38 23.6 °C 14.6 °C 1005 hPa South 22.7 km/h 22.7 km/h 57% 0 mm meteobridge W/m2
16:44 23.9 °C 14.3 °C 1005 hPa SSE 13 km/h 17.7 km/h 55% 0 mm meteobridge W/m2
16:50 24.1 °C 13.9 °C 1005 hPa SSE 7.9 km/h 17.7 km/h 53% 0 mm meteobridge W/m2
16:57 24.1 °C 14.2 °C 1005 hPa SSE 7.9 km/h 17.7 km/h 54% 0 mm meteobridge W/m2
17:03 23.8 °C 13.9 °C 1004.6 hPa South 7.9 km/h 17.7 km/h 54% 0 mm meteobridge W/m2
17:09 23.6 °C 13.7 °C 1004.6 hPa South 6.4 km/h 11.3 km/h 54% 0 mm meteobridge W/m2
17:15 23.8 °C 13.6 °C 1004.6 hPa SSE 16.3 km/h 17.7 km/h 53% 0 mm meteobridge W/m2
17:21 23.7 °C 13.6 °C 1004.6 hPa SSE 7.9 km/h 17.7 km/h 53% 0 mm meteobridge W/m2
17:27 23.7 °C 13.8 °C 1004.6 hPa SSE 6.4 km/h 16.1 km/h 54% 0 mm meteobridge W/m2
17:33 23.4 °C 13.8 °C 1004.6 hPa South 7.9 km/h 17.7 km/h 55% 0 mm meteobridge W/m2
17:39 23.3 °C 14 °C 1004.6 hPa South 13 km/h 22.5 km/h 56% 0 mm meteobridge W/m2
17:45 23 °C 13.7 °C 1004.6 hPa South 14.3 km/h 22.5 km/h 56% 0 mm meteobridge W/m2
17:51 23 °C 14.3 °C 1004.6 hPa South 16.3 km/h 16.3 km/h 58% 0 mm meteobridge W/m2
17:58 22.9 °C 13.9 °C 1004.6 hPa SSW 7.9 km/h 22.5 km/h 57% 0 mm meteobridge W/m2
18:04 22.5 °C 14.1 °C 1004.6 hPa South 9.7 km/h 24.1 km/h 59% 0 mm meteobridge W/m2
18:10 22.4 °C 14.5 °C 1004.6 hPa SE 24.1 km/h 24.1 km/h 61% 0 mm meteobridge W/m2
18:16 22.3 °C 13.9 °C 1004.6 hPa South 16.3 km/h 24.1 km/h 59% 0 mm meteobridge W/m2
18:22 22.3 °C 14.2 °C 1004.6 hPa South 7.9 km/h 24.1 km/h 60% 0 mm meteobridge W/m2
18:28 22.2 °C 14.1 °C 1004.6 hPa South 7.9 km/h 16.1 km/h 60% 0 mm meteobridge W/m2
18:34 21.9 °C 13.8 °C 1004.6 hPa South 20.9 km/h 20.9 km/h 60% 0 mm meteobridge W/m2
18:41 21.7 °C 13.3 °C 1004.6 hPa SSE 13 km/h 24.1 km/h 59% 0 mm meteobridge W/m2
18:47 21.5 °C 13.4 °C 1005 hPa South 13 km/h 19.3 km/h 60% 0 mm meteobridge W/m2
18:53 21.4 °C 13.6 °C 1005 hPa South 4.7 km/h 14.5 km/h 61% 0 mm meteobridge W/m2
18:59 21.1 °C 13.3 °C 1005 hPa SSE 13 km/h 20.9 km/h 61% 0 mm meteobridge W/m2
19:05 20.9 °C 12.8 °C 1005.3 hPa South 6.4 km/h 6.4 km/h 60% 0 mm meteobridge W/m2
19:12 20.9 °C 12.8 °C 1005.3 hPa South 6.4 km/h -1607.7 km/h 60% 0 mm meteobridge W/m2
19:18 20.9 °C 12.8 °C 1005.3 hPa North -1609.1 km/h -1607.7 km/h 60% 0 mm meteobridge W/m2
Regenstein, Windhoek, Namibia
Compliments of Weather Underground - 2.5 mb